Historyczne dane pomiarowe

Dodano dane terminowe – wersja testowa.

Dane z okresu 1951-2019

Wersja bazy: 1.34 [2019-03-16, lista zmian], aktualizacja planowana na 2019-04-15

Dane meteo z obszaru Polski uzyskane na podstawie danych udostępnionych przez Instytut Meteorologii i Gospodarki Wodnej – Państwowy Instytut Badawczy.

 

Wybierz Datę:    

       

TemperaturaWilgotnośćWiatrCiśnienieOpadyŚniegCzas trwania zjawisk
 Stacja t tx tn tng RH VA  wxwx mslp ppp RRR   cm mm wxwxwxwxwxwxwx
2010-07-16 24.4 31.4 17.6 16.0 76.0- 1.3 1.3---- 0.0------------
2010-07-17 26.1 31.3 18.5 15.7 69.0- 1.3 1.0---- 2.0------------
2010-07-18 24.1 29.9 20.4 18.3 78.8- 3.3 2.7---- 9.3------------
2010-07-19 20.4 24.3 17.5 13.6 73.0- 4.3 2.7---- 0.1------------
2010-07-20 20.8 25.4 14.3 11.9 69.8- 3.0 0.7---- 0.0------------
2010-07-21 22.5 27.9 15.5 12.1 75.5- 3.3 2.0---- 0.0------------
2010-07-22 25.3 31.8 17.3 15.2 66.8- 1.0 1.7---- 0.0------------
2010-07-23 25.1 32.2 18.7 16.1 69.3- 1.3 2.7---- 7.8------------
2010-07-24 24.9 32.0 19.9 18.6 66.3- 3.3 3.0---- 0.0------------
2010-07-25 19.2 26.3 16.2 15.7 77.8- 6.0 2.3---- 0.0------------
2010-07-26 18.1 21.2 15.3 14.0 77.3- 6.0 3.3---- 0.0------------
2010-07-27 19.6 22.9 16.3 15.0 89.3- 6.7 2.3---- 12.3------------
2010-07-28 20.2 23.4 17.9 15.5 79.0- 3.7 1.3---- 0.0------------
2010-07-29 17.9 22.5 13.9 11.2 86.3- 5.0 2.3---- 4.2------------
2010-07-30 18.1 25.8 11.4 9.1 79.5- 4.0 1.0---- 35.2------------
2010-07-31 20.9 26.3 16.4 14.7 89.0- 4.3 0.3---- 14.0------------
2010-08-01 21.0 26.3 15.2 13.6 84.8- 1.7 0.7---- 0.0------------
2010-08-02 22.4 28.0 17.5 12.9 77.8- 2.7 0.7---- 0.0------------
2010-08-03 23.7 30.3 16.9 15.0 71.5- 2.3 2.3---- 7.5------------
2010-08-04 20.2 28.3 15.8 16.3 85.3- 6.3 2.3---- 0.0------------
2010-08-05 19.5 23.9 15.6 15.1 80.8- 5.3 1.3---- 0.0------------
2010-08-06 21.6 27.7 15.2 12.3 85.3- 4.3 2.0---- 19.2------------
2010-08-07 24.0 30.8 18.6 17.9 77.5- 2.0 2.7---- 0.2------------
2010-08-08 21.6 26.3 17.6 16.4 83.5- 4.0 1.7---- 0.9------------
2010-08-09 18.9 24.0 15.0 10.1 85.3- 3.3 0.7---- 0.0------------
2010-08-10 19.0 25.8 12.5 10.2 81.8- 3.0 0.3---- 0.0------------
2010-08-11 20.0 26.8 12.4 10.6 80.3- 3.0 0.3---- 0.0------------
2010-08-12 21.3 28.2 13.5 10.9 74.5- 2.0 2.3---- 0.0------------
2010-08-13 23.9 31.9 16.8 14.4 73.3- 0.7 2.0---- 30.4------------
2010-08-14 25.3 34.7 17.9 16.3 73.3- 1.3 2.0---- 0.0------------
197.6 ms

 

Źródłem pochodzenia danych jest Instytut Meteorologii i Gospodarki Wodnej – Państwowy Instytut Badawczy. Dane Instytutu Meteorologii i Gospodarki Wodnej – Państwowego Instytutu Badawczego zostały przetworzone.

Dane źródłowe można odnaleźć na stronie https://dane.imgw.pl